Time;durP1;ratioP1;P1;durP2;ratioP2;P2;SDS_P1;SDS_P2;PMS_P1;PMS_P2;Temp;Humidity;BMP_temperature;BMP_pressure;BME280_temperature;BME280_humidity;BME280_pressure;Samples;Min_cycle;Max_cycle;Signal;HPM_P1;HPM_P2
2022/11/20 00:01:46;;;;;;;;;;;;;;;;;;5034901;28;6960;-80
2022/11/20 00:04:12;;;;;;;;;;;;;;;;;;5034177;28;7319;-79
2022/11/20 00:06:40;;;;;;;;;;;;;;;;;;5035262;28;7080;-79
2022/11/20 00:09:15;;;;;;;;;;;;;;;;;;5034491;28;7185;-79
2022/11/20 00:11:41;;;;;;;;;;;;;;;;;;5034625;28;6911;-79
2022/11/20 00:14:09;;;;;;;;;;;;;;;;;;5033398;28;6982;-79
2022/11/20 00:16:35;;;;;;;;;;;;;;;;;;5035473;28;7340;-79
2022/11/20 00:19:02;;;;;;;;;;;;;;;;;;5034359;28;6930;-79
2022/11/20 00:21:42;;;;;;;;;;;;;;;;;;5034629;28;6947;-79
2022/11/20 00:24:10;;;;;;;;;;;;;;;;;;5032956;28;7186;-79
2022/11/20 00:29:38;;;;;;;;;;;;;;;;;;5037043;28;7072;-93
2022/11/20 00:35:07;;;;;;;;;;;;;;;;;;5036858;28;6671;-93
2022/11/20 00:40:36;;;;;;;;;;;;;;;;;;5037173;28;6976;-95
2022/11/20 00:43:08;;;;;;;;;;;;;;;;;;5036348;28;6921;-80
2022/11/20 00:45:34;;;;;;;;;;;;;;;;;;5034075;28;7033;-79
2022/11/20 00:47:59;;;;;;;;;;;;;;;;;;5034208;28;7107;-79
2022/11/20 00:50:25;;;;;;;;;;;;;;;;;;5034072;28;6973;-79
2022/11/20 00:52:53;;;;;;;;;;;;;;;;;;5037070;28;6944;-79
2022/11/20 00:55:18;;;;;;;;;;;;;;;;;;5037432;28;6830;-79
2022/11/20 00:57:44;;;;;;;;;;;;;;;;;;5038066;28;6792;-80
2022/11/20 01:00:10;;;;;;;;;;;;;;;;;;5095487;23;7637;-80
2022/11/20 01:02:35;;;;;;;;;;;;;;;;;;5042305;28;8427;-93
2022/11/20 01:05:02;;;;;;;;;;;;;;;;;;5043251;28;7009;-93
2022/11/20 01:10:30;;;;;;;;;;;;;;;;;;5043991;28;6690;-94
2022/11/20 01:16:10;;;;;;;;;;;;;;;;;;5044122;28;6682;-94
2022/11/20 01:21:40;;;;;;;;;;;;;;;;;;5040635;28;6754;-94
2022/11/20 01:27:09;;;;;;;;;;;;;;;;;;5045324;28;6686;-94
2022/11/20 01:32:37;;;;;;;;;;;;;;;;;;5044150;28;6698;-96
2022/11/20 01:38:06;;;;;;;;;;;;;;;;;;5045895;28;6689;-94
2022/11/20 01:40:42;;;;;;;;;;;;;;;;;;5037480;28;6921;-79
2022/11/20 01:46:03;;;;;;;;;;;;;;;;;;5037347;28;7020;-79
2022/11/20 01:48:37;;;;;;;;;;;;;;;;;;5036602;28;7821;-79
2022/11/20 01:51:05;;;;;;;;;;;;;;;;;;5036584;28;8443;-93
2022/11/20 01:53:51;;;;;;;;;;;;;;;;;;5040691;28;6930;-94
2022/11/20 01:59:22;;;;;;;;;;;;;;;;;;5038592;28;7003;-92
2022/11/20 02:08:19;;;;;;;;;;;;;;;;;;5039228;28;6682;-93
2022/11/20 02:13:49;;;;;;;;;;;;;;;;;;5041262;28;6677;-94
2022/11/20 02:19:18;;;;;;;;;;;;;;;;;;5038145;28;6686;-93
2022/11/20 02:24:49;;;;;;;;;;;;;;;;;;5041769;28;6818;-95
2022/11/20 02:30:18;;;;;;;;;;;;;;;;;;5041236;28;6674;-94
2022/11/20 02:35:47;;;;;;;;;;;;;;;;;;5037814;28;6934;-96
2022/11/20 02:41:15;;;;;;;;;;;;;;;;;;5037492;28;6989;-94
2022/11/20 02:46:44;;;;;;;;;;;;;;;;;;5038201;28;6681;-93
2022/11/20 02:52:12;;;;;;;;;;;;;;;;;;5038166;28;6689;-93
2022/11/20 02:57:40;;;;;;;;;;;;;;;;;;5036357;28;6970;-93
2022/11/20 03:03:09;;;;;;;;;;;;;;;;;;5035144;28;6678;-94
2022/11/20 03:08:51;;;;;;;;;;;;;;;;;;5032455;28;6833;-79
2022/11/20 03:11:16;;;;;;;;;;;;;;;;;;5035653;28;7110;-79
2022/11/20 03:13:42;;;;;;;;;;;;;;;;;;5035127;28;7030;-79
2022/11/20 03:16:11;;;;;;;;;;;;;;;;;;5034521;28;6994;-79
2022/11/20 03:18:38;;;;;;;;;;;;;;;;;;5035168;28;6976;-79
2022/11/20 03:21:11;;;;;;;;;;;;;;;;;;5035474;28;7057;-79
2022/11/20 03:23:38;;;;;;;;;;;;;;;;;;5034937;28;7093;-79
2022/11/20 03:26:26;;;;;;;;;;;;;;;;;;5035240;28;7419;-79
2022/11/20 03:28:54;;;;;;;;;;;;;;;;;;5035888;28;7176;-79
2022/11/20 03:31:42;;;;;;;;;;;;;;;;;;5035419;28;6978;-92
2022/11/20 03:34:10;;;;;;;;;;;;;;;;;;5036148;28;7001;-95
2022/11/20 03:36:40;;;;;;;;;;;;;;;;;;5036046;28;7018;-94
2022/11/20 03:45:10;;;;;;;;;;;;;;;;;;4994545;28;7165;-89
2022/11/20 03:47:39;;;;;;;;;;;;;;;;;;4991288;28;7109;-90
2022/11/20 03:50:05;;;;;;;;;;;;;;;;;;4989037;28;7155;-91
2022/11/20 03:55:33;;;;;;;;;;;;;;;;;;4974276;28;6742;-91
2022/11/20 03:58:13;;;;;;;;;;;;;;;;;;4983991;28;7163;-89
2022/11/20 04:00:39;;;;;;;;;;;;;;;;;;4994241;28;7070;-90
2022/11/20 04:03:05;;;;;;;;;;;;;;;;;;4993964;28;7046;-89
2022/11/20 04:05:32;;;;;;;;;;;;;;;;;;4994094;28;7203;-89
2022/11/20 04:07:58;;;;;;;;;;;;;;;;;;4986776;28;6971;-89
2022/11/20 04:10:23;;;;;;;;;;;;;;;;;;4993673;28;7128;-89
2022/11/20 04:12:49;;;;;;;;;;;;;;;;;;4994117;28;6851;-91
2022/11/20 04:15:14;;;;;;;;;;;;;;;;;;4993868;28;7054;-90
2022/11/20 04:17:56;;;;;;;;;;;;;;;;;;4993811;28;6943;-90
2022/11/20 04:20:21;;;;;;;;;;;;;;;;;;4993319;28;6955;-89
2022/11/20 04:22:54;;;;;;;;;;;;;;;;;;5011624;28;6858;-89
2022/11/20 04:25:20;;;;;;;;;;;;;;;;;;5014613;28;6964;-89
2022/11/20 04:27:45;;;;;;;;;;;;;;;;;;5017934;28;6923;-89
2022/11/20 04:30:12;;;;;;;;;;;;;;;;;;5019205;28;7181;-89
2022/11/20 04:32:38;;;;;;;;;;;;;;;;;;5018543;28;6906;-89
2022/11/20 04:35:04;;;;;;;;;;;;;;;;;;5018351;28;7399;-90
2022/11/20 04:37:30;;;;;;;;;;;;;;;;;;5017226;28;8526;-90
2022/11/20 04:39:55;;;;;;;;;;;;;;;;;;5018063;28;6973;-90
2022/11/20 04:42:30;;;;;;;;;;;;;;;;;;5018224;28;7253;-89
2022/11/20 04:44:57;;;;;;;;;;;;;;;;;;5017760;28;6819;-89
2022/11/20 04:47:23;;;;;;;;;;;;;;;;;;5018436;28;7419;-89
2022/11/20 04:50:06;;;;;;;;;;;;;;;;;;5018334;28;6995;-88
2022/11/20 04:52:31;;;;;;;;;;;;;;;;;;5018344;28;7062;-88
2022/11/20 04:54:57;;;;;;;;;;;;;;;;;;5017901;28;6937;-88
2022/11/20 04:57:23;;;;;;;;;;;;;;;;;;5018179;28;7066;-90
2022/11/20 04:59:48;;;;;;;;;;;;;;;;;;5018104;28;7030;-89
2022/11/20 05:02:25;;;;;;;;;;;;;;;;;;5018333;28;6929;-91
2022/11/20 05:04:51;;;;;;;;;;;;;;;;;;5018481;28;7120;-89
2022/11/20 05:07:39;;;;;;;;;;;;;;;;;;5018561;28;6864;-89
2022/11/20 05:10:05;;;;;;;;;;;;;;;;;;5017740;28;7185;-88
2022/11/20 05:12:31;;;;;;;;;;;;;;;;;;5018303;28;6970;-89
2022/11/20 05:14:57;;;;;;;;;;;;;;;;;;5018521;28;6850;-90
2022/11/20 05:17:22;;;;;;;;;;;;;;;;;;5017505;28;6950;-88
2022/11/20 05:19:48;;;;;;;;;;;;;;;;;;5017341;28;7054;-88
2022/11/20 05:22:14;;;;;;;;;;;;;;;;;;5016254;28;8947;-87
2022/11/20 05:24:43;;;;;;;;;;;;;;;;;;5017696;28;7173;-88
2022/11/20 05:27:08;;;;;;;;;;;;;;;;;;5017678;28;6945;-87
2022/11/20 05:29:34;;;;;;;;;;;;;;;;;;5017659;28;7047;-87
2022/11/20 05:32:00;;;;;;;;;;;;;;;;;;5017471;28;7130;-88
2022/11/20 05:34:39;;;;;;;;;;;;;;;;;;5017391;28;7031;-90
2022/11/20 05:37:05;;;;;;;;;;;;;;;;;;5016710;28;7090;-88
2022/11/20 05:39:30;;;;;;;;;;;;;;;;;;5017289;28;7039;-88
2022/11/20 05:44:48;;;;;;;;;;;;;;;;;;5017438;28;6797;-88
2022/11/20 05:47:14;;;;;;;;;;;;;;;;;;5017346;28;7281;-74
2022/11/20 05:49:39;;;;;;;;;;;;;;;;;;5019786;28;7057;-76
2022/11/20 05:52:05;;;;;;;;;;;;;;;;;;5027241;28;6818;-75
2022/11/20 05:54:30;;;;;;;;;;;;;;;;;;5025985;28;7033;-76
2022/11/20 05:57:02;;;;;;;;;;;;;;;;;;5025916;28;6928;-76
2022/11/20 05:59:27;;;;;;;;;;;;;;;;;;5024904;28;7221;-76
2022/11/20 06:01:55;;;;;;;;;;;;;;;;;;5026230;28;7370;-75
2022/11/20 06:04:20;;;;;;;;;;;;;;;;;;5031109;28;7143;-76
2022/11/20 06:06:52;;;;;;;;;;;;;;;;;;5024669;28;7049;-76
2022/11/20 06:09:18;;;;;;;;;;;;;;;;;;5025243;28;7223;-77
2022/11/20 06:11:43;;;;;;;;;;;;;;;;;;5026481;28;7152;-77
2022/11/20 06:14:19;;;;;;;;;;;;;;;;;;5025061;28;6976;-77
2022/11/20 06:16:44;;;;;;;;;;;;;;;;;;5024842;28;6989;-76
2022/11/20 06:19:12;;;;;;;;;;;;;;;;;;5025045;28;8815;-76
2022/11/20 06:21:38;;;;;;;;;;;;;;;;;;5025943;28;7877;-76
2022/11/20 06:24:10;;;;;;;;;;;;;;;;;;5024526;28;7133;-77
2022/11/20 06:26:36;;;;;;;;;;;;;;;;;;5025501;28;7414;-77
2022/11/20 06:29:11;;;;;;;;;;;;;;;;;;5026699;28;6966;-77
2022/11/20 06:31:37;;;;;;;;;;;;;;;;;;5032993;28;7285;-77
2022/11/20 06:34:05;;;;;;;;;;;;;;;;;;5023930;28;6993;-77
2022/11/20 06:36:31;;;;;;;;;;;;;;;;;;5035662;28;7088;-77
2022/11/20 06:38:56;;;;;;;;;;;;;;;;;;5035997;28;7102;-76
2022/11/20 06:41:22;;;;;;;;;;;;;;;;;;5036245;28;6926;-75
2022/11/20 06:43:49;;;;;;;;;;;;;;;;;;5034575;28;8913;-64
2022/11/20 06:49:27;;;;;;;;;;;;;;;;;;5034438;28;6943;-77
2022/11/20 06:51:52;;;;;;;;;;;;;;;;;;5035395;28;7086;-67
2022/11/20 06:54:34;;;;;;;;;;;;;;;;;;5035455;28;7144;-63
2022/11/20 06:56:59;;;;;;;;;;;;;;;;;;5035468;28;7440;-67
2022/11/20 06:59:25;;;;;;;;;;;;;;;;;;5034966;28;8171;-67
2022/11/20 07:01:51;;;;;;;;;;;;;;;;;;5035422;28;7328;-67
2022/11/20 07:04:17;;;;;;;;;;;;;;;;;;5019578;28;7935;-65
2022/11/20 07:06:45;;;;;;;;;;;;;;;;;;5015049;28;6945;-65
2022/11/20 07:09:11;;;;;;;;;;;;;;;;;;5010473;28;6921;-65
2022/11/20 07:11:38;;;;;;;;;;;;;;;;;;5012120;28;6951;-65
2022/11/20 07:14:03;;;;;;;;;;;;;;;;;;5014705;28;7127;-65
2022/11/20 07:16:29;;;;;;;;;;;;;;;;;;5014333;28;7533;-65
2022/11/20 07:21:53;;;;;;;;;;;;;;;;;;5014813;28;6789;-65
2022/11/20 07:24:29;;;;;;;;;;;;;;;;;;5014772;28;7366;-65
2022/11/20 07:26:55;;;;;;;;;;;;;;;;;;5014774;28;6935;-65
2022/11/20 07:29:40;;;;;;;;;;;;;;;;;;5014722;28;7317;-63
2022/11/20 07:32:05;;;;;;;;;;;;;;;;;;5015062;28;7056;-65
2022/11/20 07:34:34;;;;;;;;;;;;;;;;;;5015088;28;6971;-66
2022/11/20 07:37:00;;;;;;;;;;;;;;;;;;5014964;28;7058;-66
2022/11/20 07:39:25;;;;;;;;;;;;;;;;;;5015477;28;7565;-66
2022/11/20 07:41:58;;;;;;;;;;;;;;;;;;5015339;28;6880;-66
2022/11/20 07:44:24;;;;;;;;;;;;;;;;;;5014693;28;7187;-66
2022/11/20 07:46:51;;;;;;;;;;;;;;;;;;5015013;28;7060;-66
2022/11/20 07:49:16;;;;;;;;;;;;;;;;;;5014907;28;7004;-67
2022/11/20 07:51:42;;;;;;;;;;;;;;;;;;5014805;28;6914;-68
2022/11/20 07:54:07;;;;;;;;;;;;;;;;;;5015496;28;7217;-68
2022/11/20 07:56:40;;;;;;;;;;;;;;;;;;5015306;28;7105;-68
2022/11/20 07:59:05;;;;;;;;;;;;;;;;;;5015083;28;6822;-67
2022/11/20 08:01:32;;;;;;;;;;;;;;;;;;5017518;28;6807;-68
2022/11/20 08:03:57;;;;;;;;;;;;;;;;;;5018706;28;7208;-68
2022/11/20 08:06:25;;;;;;;;;;;;;;;;;;5018807;28;7028;-68
2022/11/20 08:08:58;;;;;;;;;;;;;;;;;;5018433;28;7163;-68
2022/11/20 08:14:12;;;;;;;;;;;;;;;;;;5019439;28;6984;-70
2022/11/20 08:16:49;;;;;;;;;;;;;;;;;;5019015;28;7030;-70
2022/11/20 08:19:16;;;;;;;;;;;;;;;;;;5018496;28;6946;-70
2022/11/20 08:21:43;;;;;;;;;;;;;;;;;;5018109;28;7181;-70
2022/11/20 08:24:18;;;;;;;;;;;;;;;;;;5019729;28;7339;-70
2022/11/20 08:26:43;;;;;;;;;;;;;;;;;;5020237;28;6822;-70
2022/11/20 08:29:09;;;;;;;;;;;;;;;;;;5063046;23;6933;-68
2022/11/20 08:31:35;;;;;;;;;;;;;;;;;;5036207;28;8533;-70
2022/11/20 08:34:00;;;;;;;;;;;;;;;;;;5037975;28;6906;-70
2022/11/20 08:36:28;;;;;;;;;;;;;;;;;;5038102;28;6943;-70
2022/11/20 08:38:55;;;;;;;;;;;;;;;;;;5038504;28;7376;-70
2022/11/20 08:41:28;;;;;;;;;;;;;;;;;;5038729;28;7127;-70
2022/11/20 08:43:56;;;;;;;;;;;;;;;;;;5037963;28;7129;-70
2022/11/20 08:46:24;;;;;;;;;;;;;;;;;;5038193;28;7018;-70
2022/11/20 08:48:49;;;;;;;;;;;;;;;;;;5037794;28;7057;-69
2022/11/20 08:51:16;;;;;;;;;;;;;;;;;;5037328;28;7145;-69
2022/11/20 08:53:42;;;;;;;;;;;;;;;;;;5037958;28;7227;-69
2022/11/20 08:56:09;;;;;;;;;;;;;;;;;;5037958;28;6999;-69
2022/11/20 08:58:36;;;;;;;;;;;;;;;;;;5037040;28;7101;-70
2022/11/20 09:01:05;;;;;;;;;;;;;;;;;;5037032;28;7124;-71
2022/11/20 09:03:31;;;;;;;;;;;;;;;;;;5037548;28;7094;-71
2022/11/20 09:06:07;;;;;;;;;;;;;;;;;;5037860;28;6984;-70
2022/11/20 09:08:33;;;;;;;;;;;;;;;;;;5024570;28;7204;-70
2022/11/20 09:11:00;;;;;;;;;;;;;;;;;;5016997;28;6980;-70
2022/11/20 09:13:27;;;;;;;;;;;;;;;;;;5016758;28;7190;-70
2022/11/20 09:15:58;;;;;;;;;;;;;;;;;;5015733;28;8778;-70
2022/11/20 09:18:24;;;;;;;;;;;;;;;;;;5017474;28;7263;-69
2022/11/20 09:20:50;;;;;;;;;;;;;;;;;;5016337;28;6913;-70
2022/11/20 09:23:16;;;;;;;;;;;;;;;;;;5016433;28;7930;-70
2022/11/20 09:25:42;;;;;;;;;;;;;;;;;;5016621;28;7001;-70
2022/11/20 09:28:35;;;;;;;;;;;;;;;;;;5017325;28;7152;-70
2022/11/20 09:31:00;;;;;;;;;;;;;;;;;;5016467;28;6994;-70
2022/11/20 09:33:30;;;;;;;;;;;;;;;;;;5016935;28;6875;-70
2022/11/20 09:35:55;;;;;;;;;;;;;;;;;;5017042;28;7046;-70
2022/11/20 09:38:26;;;;;;;;;;;;;;;;;;5016875;28;6936;-69
2022/11/20 09:41:06;;;;;;;;;;;;;;;;;;5016430;28;7057;-69
2022/11/20 09:43:40;;;;;;;;;;;;;;;;;;5016367;28;7097;-69
2022/11/20 09:46:13;;;;;;;;;;;;;;;;;;5016640;28;6943;-71
2022/11/20 09:49:09;;;;;;;;;;;;;;;;;;5016880;28;7096;-71
2022/11/20 09:51:53;;;;;;;;;;;;;;;;;;5032641;28;8571;-72
2022/11/20 09:54:26;;;;;;;;;;;;;;;;;;5016201;28;6933;-71
2022/11/20 09:56:59;;;;;;;;;;;;;;;;;;5016581;28;7131;-71
2022/11/20 09:59:47;;;;;;;;;;;;;;;;;;5016384;28;7368;-70
2022/11/20 10:02:17;;;;;;;;;;;;;;;;;;5016571;28;7408;-71
2022/11/20 10:04:48;;;;;;;;;;;;;;;;;;5015929;28;7202;-71
2022/11/20 10:07:21;;;;;;;;;;;;;;;;;;5031182;28;7030;-71
2022/11/20 10:10:05;;;;;;;;;;;;;;;;;;5016204;28;7153;-69
2022/11/20 10:12:56;;;;;;;;;;;;;;;;;;5016116;28;7181;-68
2022/11/20 10:15:22;;;;;;;;;;;;;;;;;;5015561;28;7108;-68
2022/11/20 10:18:06;;;;;;;;;;;;;;;;;;5015938;28;7165;-67
2022/11/20 10:20:50;;;;;;;;;;;;;;;;;;5015932;28;7032;-67
2022/11/20 10:23:38;;;;;;;;;;;;;;;;;;5016327;28;7057;-69
2022/11/20 10:28:51;;;;;;;;;;;;;;;;;;5016757;28;6893;-69
2022/11/20 10:31:38;;;;;;;;;;;;;;;;;;5011531;28;6811;-67
2022/11/20 10:34:37;;;;;;;;;;;;;;;;;;5015702;28;7168;-67
2022/11/20 10:37:18;;;;;;;;;;;;;;;;;;5016195;28;6913;-69
2022/11/20 10:39:59;;;;;;;;;;;;;;;;;;5015820;28;7071;-69
2022/11/20 10:45:24;;;;;;;;;;;;;;;;;;5016251;28;6852;-69
2022/11/20 10:47:50;;;;;;;;;;;;;;;;;;5016597;28;7011;-69
2022/11/20 10:50:20;;;;;;;;;;;;;;;;;;5015598;28;7428;-69
2022/11/20 10:53:04;;;;;;;;;;;;;;;;;;5016727;28;7165;-69
2022/11/20 10:55:47;;;;;;;;;;;;;;;;;;5015544;28;7164;-69
2022/11/20 10:58:39;;;;;;;;;;;;;;;;;;5015609;28;7178;-69
2022/11/20 11:01:22;;;;;;;;;;;;;;;;;;5015337;28;7170;-69
2022/11/20 11:03:51;;;;;;;;;;;;;;;;;;5015413;28;7208;-69
2022/11/20 11:06:38;;;;;;;;;;;;;;;;;;5015804;28;7074;-69
2022/11/20 11:09:20;;;;;;;;;;;;;;;;;;5014891;28;7182;-69
2022/11/20 11:11:47;;;;;;;;;;;;;;;;;;5015549;28;7247;-69
2022/11/20 11:14:15;;;;;;;;;;;;;;;;;;5015447;28;6922;-69
2022/11/20 11:16:55;;;;;;;;;;;;;;;;;;5013811;28;6866;-71
2022/11/20 11:19:21;;;;;;;;;;;;;;;;;;5014820;28;7425;-71
2022/11/20 11:21:59;;;;;;;;;;;;;;;;;;5015271;28;7416;-71
2022/11/20 11:24:29;;;;;;;;;;;;;;;;;;5015304;28;7135;-71
2022/11/20 11:27:03;;;;;;;;;;;;;;;;;;5015011;28;7188;-71
2022/11/20 11:29:31;;;;;;;;;;;;;;;;;;5014818;28;7122;-71
2022/11/20 11:32:33;;;;;;;;;;;;;;;;;;5015801;28;6862;-71
2022/11/20 11:35:00;;;;;;;;;;;;;;;;;;5010669;28;6845;-71
2022/11/20 11:37:33;;;;;;;;;;;;;;;;;;5015033;28;7150;-71
2022/11/20 11:39:59;;;;;;;;;;;;;;;;;;5014774;28;6910;-71
2022/11/20 11:45:28;;;;;;;;;;;;;;;;;;5014401;28;7417;-71
2022/11/20 11:47:57;;;;;;;;;;;;;;;;;;5014794;28;6975;-71
2022/11/20 11:50:27;;;;;;;;;;;;;;;;;;5014618;28;6921;-71
2022/11/20 11:56:13;;;;;;;;;;;;;;;;;;5014775;28;6679;-72
2022/11/20 12:01:50;;;;;;;;;;;;;;;;;;5014939;28;6776;-71
2022/11/20 12:04:16;;;;;;;;;;;;;;;;;;5014636;28;6962;-71
2022/11/20 12:06:45;;;;;;;;;;;;;;;;;;5014765;28;7140;-71
2022/11/20 12:09:13;;;;;;;;;;;;;;;;;;5014563;28;7024;-71
2022/11/20 12:12:06;;;;;;;;;;;;;;;;;;5014397;28;7216;-71
2022/11/20 12:14:41;;;;;;;;;;;;;;;;;;5014382;28;7072;-71
2022/11/20 12:17:11;;;;;;;;;;;;;;;;;;5015537;28;7061;-71
2022/11/20 12:19:36;;;;;;;;;;;;;;;;;;5014653;28;6965;-71
2022/11/20 12:22:14;;;;;;;;;;;;;;;;;;5014522;28;7055;-71
2022/11/20 12:24:42;;;;;;;;;;;;;;;;;;5014701;28;6905;-71
2022/11/20 12:27:26;;;;;;;;;;;;;;;;;;5015061;28;7002;-72
2022/11/20 12:30:16;;;;;;;;;;;;;;;;;;5011368;28;7196;-72
2022/11/20 12:32:44;;;;;;;;;;;;;;;;;;5014615;28;7190;-72
2022/11/20 12:35:47;;;;;;;;;;;;;;;;;;5030012;28;8501;-72
2022/11/20 12:38:30;;;;;;;;;;;;;;;;;;5014618;28;7019;-69
2022/11/20 12:47:12;;;;;;;;;;;;;;;;;;5015034;28;6785;-70
2022/11/20 12:49:46;;;;;;;;;;;;;;;;;;5017897;28;7099;-69
2022/11/20 12:52:27;;;;;;;;;;;;;;;;;;5018027;28;6955;-69
2022/11/20 12:55:02;;;;;;;;;;;;;;;;;;5018352;28;6870;-69
2022/11/20 12:57:54;;;;;;;;;;;;;;;;;;5018620;28;7197;-69
2022/11/20 13:00:22;;;;;;;;;;;;;;;;;;5017902;28;7152;-69
2022/11/20 13:02:59;;;;;;;;;;;;;;;;;;5017774;28;7068;-70
2022/11/20 13:05:40;;;;;;;;;;;;;;;;;;5032848;28;6862;-70
2022/11/20 13:08:30;;;;;;;;;;;;;;;;;;5017486;28;6947;-70
2022/11/20 13:11:14;;;;;;;;;;;;;;;;;;5026054;28;7620;-70
2022/11/20 13:13:43;;;;;;;;;;;;;;;;;;5017500;28;7072;-70
2022/11/20 13:16:47;;;;;;;;;;;;;;;;;;5017407;28;7107;-70
2022/11/20 13:19:15;;;;;;;;;;;;;;;;;;4996035;28;7139;-69
2022/11/20 13:21:54;;;;;;;;;;;;;;;;;;4995618;28;7216;-69
2022/11/20 13:24:30;;;;;;;;;;;;;;;;;;4996110;28;7283;-69
2022/11/20 13:27:01;;;;;;;;;;;;;;;;;;4995648;28;7137;-69
2022/11/20 13:29:27;;;;;;;;;;;;;;;;;;4995387;28;7118;-70
2022/11/20 13:34:55;;;;;;;;;;;;;;;;;;4995578;28;7019;-71
2022/11/20 13:37:33;;;;;;;;;;;;;;;;;;4995775;28;6958;-71
2022/11/20 13:40:08;;;;;;;;;;;;;;;;;;4995135;28;7474;-72
2022/11/20 13:42:39;;;;;;;;;;;;;;;;;;4996242;28;7403;-72
2022/11/20 13:45:32;;;;;;;;;;;;;;;;;;4994969;28;7196;-72
2022/11/20 13:48:01;;;;;;;;;;;;;;;;;;4994921;28;6983;-72
2022/11/20 13:50:48;;;;;;;;;;;;;;;;;;5009936;28;7231;-72
2022/11/20 13:53:35;;;;;;;;;;;;;;;;;;5016185;28;7069;-72
2022/11/20 13:56:07;;;;;;;;;;;;;;;;;;5016967;28;7027;-72
2022/11/20 13:58:57;;;;;;;;;;;;;;;;;;5017604;28;6882;-72
2022/11/20 14:01:28;;;;;;;;;;;;;;;;;;5016309;28;7015;-72
2022/11/20 14:03:54;;;;;;;;;;;;;;;;;;5016572;28;6946;-72
2022/11/20 14:06:28;;;;;;;;;;;;;;;;;;5016699;28;7399;-72
2022/11/20 14:08:55;;;;;;;;;;;;;;;;;;5016910;28;6866;-72
2022/11/20 14:11:21;;;;;;;;;;;;;;;;;;5016512;28;6962;-72
2022/11/20 14:14:17;;;;;;;;;;;;;;;;;;5016197;28;6982;-72
2022/11/20 14:16:44;;;;;;;;;;;;;;;;;;5016238;28;7927;-72
2022/11/20 14:19:25;;;;;;;;;;;;;;;;;;5016100;28;7197;-72
2022/11/20 14:21:53;;;;;;;;;;;;;;;;;;5016371;28;6950;-72
2022/11/20 14:24:20;;;;;;;;;;;;;;;;;;5017133;28;7081;-72
2022/11/20 14:26:48;;;;;;;;;;;;;;;;;;5016506;28;6938;-72
2022/11/20 14:29:27;;;;;;;;;;;;;;;;;;5015584;28;7993;-72
2022/11/20 14:31:55;;;;;;;;;;;;;;;;;;5014504;28;8509;-72
2022/11/20 14:34:24;;;;;;;;;;;;;;;;;;5015283;28;7091;-70
2022/11/20 14:37:04;;;;;;;;;;;;;;;;;;5016632;28;7219;-70
2022/11/20 14:39:33;;;;;;;;;;;;;;;;;;5015067;28;7157;-70
2022/11/20 14:42:30;;;;;;;;;;;;;;;;;;5015405;28;6960;-70
2022/11/20 14:44:58;;;;;;;;;;;;;;;;;;5012844;28;7083;-70
2022/11/20 14:47:33;;;;;;;;;;;;;;;;;;5015032;28;6974;-70
2022/11/20 14:50:00;;;;;;;;;;;;;;;;;;5015269;28;7200;-70
2022/11/20 14:52:27;;;;;;;;;;;;;;;;;;5015205;28;7376;-70
2022/11/20 14:54:59;;;;;;;;;;;;;;;;;;5015663;28;6955;-70
2022/11/20 14:57:25;;;;;;;;;;;;;;;;;;5015590;28;7185;-70
2022/11/20 15:00:21;;;;;;;;;;;;;;;;;;5015374;28;7265;-70
2022/11/20 15:02:49;;;;;;;;;;;;;;;;;;4974608;28;6978;-70
2022/11/20 15:05:16;;;;;;;;;;;;;;;;;;4973195;28;7196;-70
2022/11/20 15:07:45;;;;;;;;;;;;;;;;;;4974828;28;7224;-70
2022/11/20 15:10:27;;;;;;;;;;;;;;;;;;4973036;28;7293;-70
2022/11/20 15:12:56;;;;;;;;;;;;;;;;;;4973683;28;7165;-72
2022/11/20 15:15:33;;;;;;;;;;;;;;;;;;4974119;28;7179;-71
2022/11/20 15:17:59;;;;;;;;;;;;;;;;;;4973345;28;6962;-72
2022/11/20 15:20:27;;;;;;;;;;;;;;;;;;4957494;28;7077;-72
2022/11/20 15:23:00;;;;;;;;;;;;;;;;;;4973760;28;7106;-72
2022/11/20 15:25:26;;;;;;;;;;;;;;;;;;4973236;28;7377;-72
2022/11/20 15:28:01;;;;;;;;;;;;;;;;;;4973802;28;7439;-72
2022/11/20 15:30:27;;;;;;;;;;;;;;;;;;4973971;28;7164;-72
2022/11/20 15:32:52;;;;;;;;;;;;;;;;;;4972560;28;7170;-72
2022/11/20 15:35:18;;;;;;;;;;;;;;;;;;4973660;28;6982;-72
2022/11/20 15:37:43;;;;;;;;;;;;;;;;;;4974704;28;7271;-72
2022/11/20 15:40:17;;;;;;;;;;;;;;;;;;5010580;28;7203;-70
2022/11/20 15:43:02;;;;;;;;;;;;;;;;;;5014807;28;7031;-70
2022/11/20 15:45:32;;;;;;;;;;;;;;;;;;5013492;28;7033;-70
2022/11/20 15:47:58;;;;;;;;;;;;;;;;;;5014624;28;7155;-70
2022/11/20 15:50:29;;;;;;;;;;;;;;;;;;5014835;28;7211;-71
2022/11/20 15:53:00;;;;;;;;;;;;;;;;;;5012987;28;8785;-71
2022/11/20 15:55:28;;;;;;;;;;;;;;;;;;5014523;28;7416;-71
2022/11/20 15:58:01;;;;;;;;;;;;;;;;;;5012901;28;8734;-70
2022/11/20 16:00:27;;;;;;;;;;;;;;;;;;5014717;28;7189;-72
2022/11/20 16:02:52;;;;;;;;;;;;;;;;;;5014536;28;6982;-72
2022/11/20 16:05:18;;;;;;;;;;;;;;;;;;5014389;28;6986;-70
2022/11/20 16:07:54;;;;;;;;;;;;;;;;;;5014671;28;7020;-70
2022/11/20 16:10:19;;;;;;;;;;;;;;;;;;5015027;28;7040;-70
2022/11/20 16:18:15;;;;;;;;;;;;;;;;;;5014809;28;6984;-70
2022/11/20 16:20:41;;;;;;;;;;;;;;;;;;5014106;28;7088;-70
2022/11/20 16:23:06;;;;;;;;;;;;;;;;;;5018026;28;6911;-70
2022/11/20 16:25:39;;;;;;;;;;;;;;;;;;5018268;28;6795;-70
2022/11/20 16:28:05;;;;;;;;;;;;;;;;;;5018258;28;6994;-70
2022/11/20 16:30:33;;;;;;;;;;;;;;;;;;5018316;28;6807;-70
2022/11/20 16:32:59;;;;;;;;;;;;;;;;;;5018479;28;7199;-70
2022/11/20 16:35:30;;;;;;;;;;;;;;;;;;5018439;28;7036;-70
2022/11/20 16:37:57;;;;;;;;;;;;;;;;;;5018248;28;7447;-73
2022/11/20 16:40:23;;;;;;;;;;;;;;;;;;5024708;28;7176;-70
2022/11/20 16:42:56;;;;;;;;;;;;;;;;;;5037273;28;7251;-71
2022/11/20 16:45:22;;;;;;;;;;;;;;;;;;5037155;28;7170;-71
2022/11/20 16:47:47;;;;;;;;;;;;;;;;;;5036973;28;7562;-71
2022/11/20 16:50:13;;;;;;;;;;;;;;;;;;5037032;28;7215;-71
2022/11/20 16:52:38;;;;;;;;;;;;;;;;;;5033879;28;7232;-71
2022/11/20 16:55:15;;;;;;;;;;;;;;;;;;5036445;28;7312;-71
2022/11/20 16:57:41;;;;;;;;;;;;;;;;;;5029261;28;7070;-71
2022/11/20 17:00:10;;;;;;;;;;;;;;;;;;5015894;28;7209;-71
2022/11/20 17:02:37;;;;;;;;;;;;;;;;;;5015523;28;8569;-71
2022/11/20 17:05:03;;;;;;;;;;;;;;;;;;5016886;28;7265;-71
2022/11/20 17:07:28;;;;;;;;;;;;;;;;;;5017527;28;7303;-71
2022/11/20 17:09:54;;;;;;;;;;;;;;;;;;5016918;28;6929;-71
2022/11/20 17:12:30;;;;;;;;;;;;;;;;;;5017055;28;7362;-71
2022/11/20 17:14:56;;;;;;;;;;;;;;;;;;5016972;28;6980;-71
2022/11/20 17:17:21;;;;;;;;;;;;;;;;;;5017103;28;6794;-71
2022/11/20 17:19:48;;;;;;;;;;;;;;;;;;5017300;28;7139;-71
2022/11/20 17:22:22;;;;;;;;;;;;;;;;;;5016673;28;7038;-71
2022/11/20 17:24:48;;;;;;;;;;;;;;;;;;5016946;28;7021;-72
2022/11/20 17:27:13;;;;;;;;;;;;;;;;;;5016919;28;7115;-72
2022/11/20 17:29:45;;;;;;;;;;;;;;;;;;5016766;28;7050;-72
2022/11/20 17:32:38;;;;;;;;;;;;;;;;;;5016279;28;7863;-72
2022/11/20 17:35:04;;;;;;;;;;;;;;;;;;5016387;28;7137;-72
2022/11/20 17:37:30;;;;;;;;;;;;;;;;;;5017062;28;6980;-72
2022/11/20 17:40:01;;;;;;;;;;;;;;;;;;5016256;28;6987;-72
2022/11/20 17:42:35;;;;;;;;;;;;;;;;;;5017000;28;7130;-72
2022/11/20 17:45:01;;;;;;;;;;;;;;;;;;5015260;28;7153;-72
2022/11/20 17:47:34;;;;;;;;;;;;;;;;;;5016396;28;7391;-72
2022/11/20 17:49:59;;;;;;;;;;;;;;;;;;5016434;28;7045;-72
2022/11/20 17:52:25;;;;;;;;;;;;;;;;;;5016323;28;7134;-72
2022/11/20 17:54:57;;;;;;;;;;;;;;;;;;5016923;28;7156;-72
2022/11/20 18:00:09;;;;;;;;;;;;;;;;;;5016343;28;6793;-72
2022/11/20 18:02:35;;;;;;;;;;;;;;;;;;5016671;28;6907;-72
2022/11/20 18:05:01;;;;;;;;;;;;;;;;;;5016285;28;7116;-72
2022/11/20 18:07:37;;;;;;;;;;;;;;;;;;5016561;28;6989;-72
2022/11/20 18:12:54;;;;;;;;;;;;;;;;;;5016878;28;6920;-72
2022/11/20 18:15:19;;;;;;;;;;;;;;;;;;5015602;28;8634;-72
2022/11/20 18:17:45;;;;;;;;;;;;;;;;;;5016071;28;7011;-72
2022/11/20 18:20:11;;;;;;;;;;;;;;;;;;5015879;28;7218;-72
2022/11/20 18:22:36;;;;;;;;;;;;;;;;;;5015742;28;7351;-72
2022/11/20 18:25:30;;;;;;;;;;;;;;;;;;5015881;28;7178;-72
2022/11/20 18:27:56;;;;;;;;;;;;;;;;;;5015902;28;6979;-72
2022/11/20 18:30:21;;;;;;;;;;;;;;;;;;5015988;28;6921;-72
2022/11/20 18:32:48;;;;;;;;;;;;;;;;;;5015901;28;7117;-72
2022/11/20 18:35:14;;;;;;;;;;;;;;;;;;5015961;28;7177;-72
2022/11/20 18:37:40;;;;;;;;;;;;;;;;;;5015905;28;7426;-72
2022/11/20 18:40:09;;;;;;;;;;;;;;;;;;5015885;28;7109;-72
2022/11/20 18:45:45;;;;;;;;;;;;;;;;;;5015054;28;6872;-72
2022/11/20 18:48:11;;;;;;;;;;;;;;;;;;5016306;28;7264;-72
2022/11/20 18:50:46;;;;;;;;;;;;;;;;;;5015521;28;7176;-72
2022/11/20 18:53:12;;;;;;;;;;;;;;;;;;5015290;28;6937;-72
2022/11/20 18:55:47;;;;;;;;;;;;;;;;;;5015199;28;6977;-72
2022/11/20 18:58:12;;;;;;;;;;;;;;;;;;5015415;28;7218;-72
2022/11/20 19:00:38;;;;;;;;;;;;;;;;;;5014666;28;6922;-72
2022/11/20 19:03:03;;;;;;;;;;;;;;;;;;5015112;28;7161;-72
2022/11/20 19:05:29;;;;;;;;;;;;;;;;;;5015515;28;7222;-72
2022/11/20 19:07:55;;;;;;;;;;;;;;;;;;5015686;28;6974;-72
2022/11/20 19:10:29;;;;;;;;;;;;;;;;;;5015397;28;7361;-72
2022/11/20 19:12:55;;;;;;;;;;;;;;;;;;5015676;28;7010;-72
2022/11/20 19:15:20;;;;;;;;;;;;;;;;;;5014954;28;7420;-72
2022/11/20 19:18:03;;;;;;;;;;;;;;;;;;5015201;28;7079;-72
2022/11/20 19:20:29;;;;;;;;;;;;;;;;;;5015551;28;7127;-72
2022/11/20 19:22:55;;;;;;;;;;;;;;;;;;5015164;28;7145;-72
2022/11/20 19:25:20;;;;;;;;;;;;;;;;;;5014969;28;7126;-72
2022/11/20 19:27:46;;;;;;;;;;;;;;;;;;5014918;28;6955;-72
2022/11/20 19:30:11;;;;;;;;;;;;;;;;;;5014969;28;7178;-72
2022/11/20 19:32:38;;;;;;;;;;;;;;;;;;5012371;28;6878;-72
2022/11/20 19:35:04;;;;;;;;;;;;;;;;;;5014670;28;7069;-72
2022/11/20 19:37:32;;;;;;;;;;;;;;;;;;5014918;28;7166;-72
2022/11/20 19:40:03;;;;;;;;;;;;;;;;;;5014486;28;7260;-72